METAR Data
IDs: Format: Raw Decoded Include TAF

Data at: 0623 UTC 23 Feb 2019

K5T9 230615Z AUTO 10004KT 9SM BKN022 16/14 A2980 RMK A01
K5T9 230555Z AUTO 13005G10KT 9SM OVC024 16/14 A2980 RMK A01
K5T9 230535Z AUTO 14005KT 10SM OVC027 16/14 A2981 RMK A01
K5T9 230515Z AUTO 13005KT 10SM OVC027 16/14 A2981 RMK A01
K5T9 230455Z AUTO 13007G12KT 10SM OVC026 16/14 A2980 RMK A01
K5T9 230435Z AUTO 12008G13KT 10SM BKN027 16/14 A2979 RMK A01
K5T9 230415Z AUTO 12007KT 10SM SCT026 BKN031 16/14 A2980 RMK A01
K5T9 230355Z AUTO 11006KT 10SM SCT024 BKN029 17/14 A2980 RMK A01
K5T9 230335Z AUTO 11008KT 10SM FEW030 17/14 A2980 RMK A01
K5T9 230315Z AUTO 11009KT 10SM CLR 18/14 A2980 RMK A01
K5T9 230255Z AUTO 11008G14KT 10SM FEW028 18/14 A2979 RMK A01
K5T9 230235Z AUTO 11010KT 10SM SCT027 18/14 A2979 RMK A01
K5T9 230215Z AUTO 11008KT 10SM BKN026 18/13 A2980 RMK A01
K5T9 230155Z AUTO 12007KT 10SM SCT027 SCT035 18/13 A2979 RMK A01
K5T9 230135Z AUTO 11007KT 10SM CLR 18/13 A2979 RMK A01
K5T9 230115Z AUTO 13006KT 10SM CLR 18/12 A2979 RMK A01
K5T9 230055Z AUTO 13005KT 10SM CLR 19/12 A2979 RMK A01
K5T9 230035Z AUTO 12008KT 10SM CLR 20/13 A2979 RMK A01
K5T9 230015Z AUTO 11010KT 10SM CLR 21/13 A2979 RMK A01
K5T9 222355Z AUTO 11011KT 10SM CLR 22/13 A2978 RMK A01
K5T9 222335Z AUTO 11010G16KT 080V140 10SM CLR 22/13 A2978 RMK A01
K5T9 222315Z AUTO 12013KT 10SM CLR 23/13 A2978 RMK A01
K5T9 222255Z AUTO 11011G16KT 10SM CLR 23/12 A2977 RMK A01
K5T9 222235Z AUTO 10010G16KT 10SM CLR 23/13 A2978 RMK A01
K5T9 222215Z AUTO 10011KT 10SM CLR 23/13 A2979 RMK A01
K5T9 222155Z AUTO VRB06G14KT 10SM CLR 23/13 A2979 RMK A01
K5T9 222135Z AUTO 13009G14KT 10SM CLR 23/13 A2980 RMK A01
K5T9 222115Z AUTO 14007G12KT 100V190 10SM CLR 23/13 A2981 RMK A01
K5T9 222055Z AUTO 12007KT 100V160 10SM CLR 23/13 A2982 RMK A01
K5T9 222035Z AUTO 16007G15KT 120V200 10SM CLR 22/13 A2982 RMK A01
K5T9 222015Z AUTO VRB06KT 10SM CLR 22/13 A2983 RMK A01
K5T9 221955Z AUTO 12007G13KT 100V190 10SM CLR 21/12 A2985 RMK A01
K5T9 221935Z AUTO 14009KT 10SM CLR 21/12 A2987 RMK A01
K5T9 221915Z AUTO 14008G14KT 120V180 10SM FEW024 20/12 A2989 RMK A01
K5T9 221855Z AUTO 12007KT 10SM BKN023 19/12 A2991 RMK A01
K5T9 221835Z AUTO 09005KT 10SM OVC021 18/12 A2992 RMK A01
K5T9 221815Z AUTO 19005G11KT 10SM OVC020 19/12 A2993 RMK A01
K5T9 221755Z AUTO 16007KT 140V200 10SM OVC018 18/12 A2994 RMK A01
K5T9 221735Z AUTO VRB03KT 10SM OVC017 16/12 A2994 RMK A01
K5T9 221715Z AUTO VRB05KT 9SM OVC014 15/12 A2995 RMK A01
K5T9 221655Z AUTO 11006KT 10SM OVC012 15/11 A2996 RMK A01
K5T9 221635Z AUTO VRB04KT 9SM BKN009 BKN013 BKN019 14/11 A2997 RMK A01
K5T9 221615Z AUTO 09004KT 10SM OVC008 14/11 A2997 RMK A01
K5T9 221555Z AUTO 11004KT 8SM OVC007 13/11 A2997 RMK A01
K5T9 221535Z AUTO 10004KT 7SM OVC006 13/11 A2997 RMK A01
K5T9 221515Z AUTO 12005KT 6SM BR OVC005 13/11 A2996 RMK A01
K5T9 221455Z AUTO 11006KT 5SM BR OVC004 12/11 A2995 RMK A01
K5T9 221435Z AUTO 09005KT 4SM BR OVC004 12/11 A2995 RMK A01
K5T9 221415Z AUTO 10005KT 2SM BR OVC005 12/11 A2995 RMK A01
K5T9 221355Z AUTO 11006KT 1 1/2SM BR OVC005 12/11 A2995 RMK A01
K5T9 221335Z AUTO 12005KT 7SM OVC006 12/11 A2995 RMK A01
K5T9 221315Z AUTO 10006KT 8SM BKN006 BKN012 OVC018 13/11 A2993 RMK A01
K5T9 221255Z AUTO 11007KT 10SM OVC018 13/10 A2993 RMK A01
K5T9 221235Z AUTO 08008KT 10SM OVC017 13/10 A2991 RMK A01
K5T9 221215Z AUTO VRB06KT 10SM OVC017 13/10 A2991 RMK A01
K5T9 221155Z AUTO 08005G11KT 10SM BKN013 OVC019 13/10 A2991 RMK A01
K5T9 221135Z AUTO 09006KT 10SM OVC012 13/10 A2991 RMK A01
K5T9 221115Z AUTO 10005KT 10SM OVC012 13/10 A2990 RMK A01
K5T9 221055Z AUTO 09005KT 10SM OVC012 13/10 A2990 RMK A01
K5T9 221035Z AUTO 13006KT 10SM OVC012 13/10 A2990 RMK A01
K5T9 221015Z AUTO 12006KT 10SM OVC013 13/10 A2990 RMK A01
K5T9 220955Z AUTO 11005KT 10SM OVC013 13/10 A2990 RMK A01
K5T9 220935Z AUTO 12006KT 10SM OVC013 13/09 A2989 RMK A01
K5T9 220915Z AUTO 11005G10KT 10SM OVC014 13/10 A2990 RMK A01
K5T9 220855Z AUTO 12006KT 10SM OVC014 13/09 A2990 RMK A01
K5T9 220835Z AUTO 12006KT 10SM OVC014 13/10 A2990 RMK A01
K5T9 220815Z AUTO 13008KT 10SM OVC014 13/10 A2990 RMK A01
K5T9 220755Z AUTO 12010KT 10SM OVC014 13/09 A2990 RMK A01
K5T9 220735Z AUTO 12012KT 10SM OVC014 13/09 A2990 RMK A01
K5T9 220715Z AUTO 12007KT 10SM OVC015 13/09 A2989 RMK A01
K5T9 220655Z AUTO 11007G13KT 10SM OVC014 13/09 A2990 RMK A01
K5T9 220635Z AUTO 11007KT 10SM OVC014 14/09 A2990 RMK A01
K5T9 220615Z AUTO 10010KT 10SM BKN015 BKN033 OVC110 14/09 A2990 RMK A01
K5T9 220555Z AUTO 10006G15KT 10SM FEW040 SCT065 BKN110 14/09 A2989 RMK A01
K5T9 220535Z AUTO 08009G17KT 10SM FEW042 SCT055 BKN075 14/09 A2988 RMK A01
K5T9 220515Z AUTO 11007G20KT 10SM FEW043 SCT055 OVC070 14/09 A2990 RMK A01
K5T9 220455Z AUTO 09012KT 10SM SCT055 BKN070 OVC110 14/10 A2989 RMK A01
K5T9 220435Z AUTO 11012KT 10SM FEW050 SCT065 BKN075 15/10 A2989 RMK A01
K5T9 220415Z AUTO 09010G18KT 10SM FEW046 SCT055 BKN070 15/10 A2987 RMK A01
K5T9 220355Z AUTO 10011G17KT 10SM FEW085 OVC110 15/10 A2988 RMK A01
K5T9 220335Z AUTO 10011G17KT 10SM FEW060 FEW080 OVC110 15/10 A2987 RMK A01
K5T9 220315Z AUTO 10010G16KT 10SM FEW060 SCT080 BKN120 16/09 A2987 RMK A01
K5T9 220255Z AUTO 10009G19KT 10SM FEW100 FEW120 16/09 A2986 RMK A01
K5T9 220235Z AUTO 11010G17KT 10SM CLR 16/09 A2986 RMK A01
K5T9 220215Z AUTO 10012KT 10SM CLR 16/09 A2985 RMK A01
K5T9 220155Z AUTO 11012KT 10SM CLR 17/08 A2984 RMK A01
K5T9 220135Z AUTO 09008G14KT 10SM CLR 17/08 A2983 RMK A01
K5T9 220115Z AUTO 09007KT 10SM FEW120 17/07 A2983 RMK A01
K5T9 220055Z AUTO 07006KT 10SM CLR 18/05 A2982 RMK A01
K5T9 220035Z AUTO 10006KT 10SM CLR 19/05 A2980 RMK A01
K5T9 220015Z AUTO 09006KT 10SM CLR 19/04 A2979 RMK A01
K5T9 212355Z AUTO 09008KT 10SM CLR 20/04 A2978 RMK A01
K5T9 212335Z AUTO 09009KT 10SM CLR 20/04 A2978 RMK A01
K5T9 212315Z AUTO 10009KT 10SM CLR 21/03 A2978 RMK A01
K5T9 212255Z AUTO 12008KT 10SM CLR 21/03 A2978 RMK A01
K5T9 212235Z AUTO VRB06G11KT 10SM CLR 21/03 A2979 RMK A01
K5T9 212215Z AUTO 11010KT 10SM CLR 22/03 A2979 RMK A01
K5T9 212155Z AUTO 11010G16KT 10SM CLR 22/03 A2978 RMK A01
K5T9 212135Z AUTO 14008KT 10SM CLR 22/03 A2979 RMK A01
K5T9 212115Z AUTO 11010KT 10SM CLR 21/04 A2979 RMK A01
K5T9 212055Z AUTO 12010KT 10SM CLR 21/04 A2980 RMK A01
K5T9 212035Z AUTO 10008G15KT 10SM CLR 21/03 A2980 RMK A01
K5T9 212015Z AUTO VRB05G11KT 10SM CLR 20/04 A2981 RMK A01
K5T9 211955Z AUTO 11007G15KT 10SM CLR 20/04 A2983 RMK A01
K5T9 211935Z AUTO 11008G13KT 080V160 10SM CLR 21/05 A2984 RMK A01
K5T9 211915Z AUTO 14009G14KT 10SM CLR 20/04 A2986 RMK A01
K5T9 211855Z AUTO VRB04G12KT 10SM CLR 20/04 A2986 RMK A01
K5T9 211835Z AUTO VRB05G12KT 10SM CLR 19/04 A2988 RMK A01